Berlin Boro, New Jersey
Current Conditions -  °F | °C
As of 11:54 PM on Monday 26 Jan 2015 (Local Time) from KVAY Reporting Station
Overcast Overcast  
Wind Chill: 16°   Ceiling: 2100
Heat Index: 27°   Visibility: 10mi
Dew Point: 20°   Wind: 14mph
Humidity: 75%   Direction: 10°N
Pressure: 29.68"   Gusts: 25mph
Location:  39.7587°N, 74.9349°W
Report Text: KVAY 270454Z AUTO 01012G22KT 10SM OVC021 M03/M07 A2968 RMK AO2 SLP052 T10281067 410061039
Loading
Personal Weather Stations






























Interactive Weather Map New forecast layout! Learn more

10-Day Weather Forecast

Advertisements
Track Severe Weather on mobile